Time;durP1;ratioP1;P1;durP2;ratioP2;P2;SDS_P1;SDS_P2;PMS_P1;PMS_P2;Temp;Humidity;BMP_temperature;BMP_pressure;BME280_temperature;BME280_humidity;BME280_pressure;Samples;Min_cycle;Max_cycle;Signal;HPM_P1;HPM_P2
2022/04/20 00:00:06;;;;;;;4.22;2.88;;;;;;;8.69;49.66;100285.25;5056949;28;20076;-79
2022/04/20 00:02:33;;;;;;;5.28;2.70;;;;;;;8.59;49.57;100281.28;5054688;28;20415;-79
2022/04/20 00:05:00;;;;;;;7.00;3.10;;;;;;;8.60;50.08;100297.06;5046271;28;20124;-78
2022/04/20 00:07:26;;;;;;;3.53;2.63;;;;;;;8.51;50.11;100281.56;5060109;28;20040;-78
2022/04/20 00:09:53;;;;;;;6.43;2.83;;;;;;;8.50;50.35;100290.41;5035742;28;20049;-79
2022/04/20 00:12:20;;;;;;;4.18;2.70;;;;;;;8.47;50.53;100287.06;5052766;28;20083;-79
2022/04/20 00:14:47;;;;;;;3.70;2.80;;;;;;;8.41;50.43;100274.97;5060014;28;20072;-79
2022/04/20 00:17:13;;;;;;;3.30;2.80;;;;;;;8.36;50.27;100267.22;5052229;28;20068;-79
2022/04/20 00:19:40;;;;;;;4.07;3.08;;;;;;;8.43;50.70;100286.31;5054745;28;20041;-78
2022/04/20 00:22:07;;;;;;;4.30;2.92;;;;;;;8.24;51.00;100269.47;5060667;28;20044;-79
2022/04/20 00:24:34;;;;;;;4.25;3.30;;;;;;;8.29;51.53;100285.97;5053202;28;20075;-78
2022/04/20 00:27:02;;;;;;;4.05;2.97;;;;;;;8.33;51.24;100298.16;5060451;28;20043;-79
2022/04/20 00:29:30;;;;;;;7.45;3.33;;;;;;;8.31;51.30;100292.91;5057894;28;20087;-78
2022/04/20 00:31:58;;;;;;;3.67;3.08;;;;;;;8.27;51.79;100293.09;5060521;28;20045;-78
2022/04/20 00:34:26;;;;;;;3.95;2.95;;;;;;;8.19;51.47;100285.44;5056828;28;20132;-79
2022/04/20 00:36:56;;;;;;;6.28;3.30;;;;;;;8.04;51.98;100273.72;5054193;28;20413;-78
2022/04/20 00:39:23;;;;;;;4.70;3.00;;;;;;;8.02;52.63;100294.03;5056206;28;20049;-79
2022/04/20 00:41:51;;;;;;;7.00;3.22;;;;;;;8.05;52.57;100300.94;5056395;28;20045;-77
2022/04/20 00:44:20;;;;;;;6.75;3.30;;;;;;;7.96;52.85;100296.91;5052332;28;20140;-78
2022/04/20 00:46:47;;;;;;;4.43;3.20;;;;;;;7.99;52.84;100295.94;5055469;28;20056;-78
2022/04/20 00:49:15;;;;;;;5.63;3.92;;;;;;;7.95;52.79;100303.09;5058838;28;20372;-78
2022/04/20 00:52:09;;;;;;;6.45;3.50;;;;;;;7.93;52.88;100297.00;5040045;28;20045;-77
2022/04/20 00:54:36;;;;;;;5.72;2.90;;;;;;;7.86;53.74;100297.31;5050556;28;20049;-79
2022/04/20 00:57:05;;;;;;;3.90;3.10;;;;;;;7.75;53.47;100285.38;5060148;28;20446;-78
2022/04/20 00:59:38;;;;;;;3.92;3.20;;;;;;;7.75;53.48;100300.31;5057471;28;20444;-78
2022/04/20 01:02:07;;;;;;;3.92;2.97;;;;;;;7.71;53.89;100289.03;5033405;28;20037;-79
2022/04/20 01:04:34;;;;;;;4.50;3.42;;;;;;;7.77;53.62;100300.28;5057409;28;20076;-78
2022/04/20 01:07:11;;;;;;;4.57;3.33;;;;;;;7.69;53.99;100288.25;5053962;28;20118;-78
2022/04/20 01:09:41;;;;;;;7.43;3.28;;;;;;;7.66;53.98;100295.41;5054460;28;20040;-80
2022/04/20 01:12:08;;;;;;;8.20;3.40;;;;;;;7.64;54.52;100292.81;5041814;28;20619;-80
2022/04/20 01:14:36;;;;;;;7.28;4.00;;;;;;;7.60;54.09;100298.25;5050615;28;20538;-78
2022/04/20 01:17:03;;;;;;;6.07;3.20;;;;;;;7.51;54.50;100290.69;5053143;28;20069;-78
2022/04/20 01:19:35;;;;;;;5.57;3.35;;;;;;;7.53;55.07;100300.28;5050867;28;20060;-79
2022/04/20 01:22:04;;;;;;;4.50;3.33;;;;;;;7.45;54.49;100296.16;5047296;28;20048;-79
2022/04/20 01:24:32;;;;;;;7.88;3.40;;;;;;;7.34;54.91;100283.38;5051104;28;20476;-78
2022/04/20 01:27:00;;;;;;;5.10;3.50;;;;;;;7.24;55.11;100276.75;5055679;28;20060;-80
2022/04/20 01:29:29;;;;;;;4.22;3.38;;;;;;;7.36;55.42;100303.50;5056651;28;20506;-78
2022/04/20 01:31:56;;;;;;;6.78;3.90;;;;;;;7.09;55.67;100271.97;5053391;28;20091;-78
2022/04/20 01:34:23;;;;;;;8.05;4.13;;;;;;;7.22;56.16;100300.50;5052863;28;20053;-78
2022/04/20 01:36:50;;;;;;;5.32;3.50;;;;;;;7.20;56.12;100298.81;5054620;28;20044;-78
2022/04/20 01:39:17;;;;;;;7.47;3.58;;;;;;;7.11;56.78;100281.53;5061610;28;20391;-79
2022/04/20 01:41:47;;;;;;;8.32;4.00;;;;;;;7.13;56.48;100284.13;5064558;28;20081;-78
2022/04/20 01:44:14;;;;;;;7.80;4.07;;;;;;;7.02;56.41;100268.72;5051117;28;20038;-78
2022/04/20 01:46:41;;;;;;;7.68;3.80;;;;;;;6.98;56.69;100269.72;5056195;28;20109;-79
2022/04/20 01:49:08;;;;;;;5.03;3.80;;;;;;;7.01;56.73;100280.16;5057591;28;20150;-79
2022/04/20 01:51:50;;;;;;;5.80;3.67;;;;;;;6.91;57.53;100274.34;5062122;28;20045;-77
2022/04/20 01:54:21;;;;;;;5.30;3.95;;;;;;;6.92;57.50;100280.47;5054743;28;20140;-79
2022/04/20 01:56:50;;;;;;;5.15;3.78;;;;;;;6.92;57.99;100283.13;5060536;28;20400;-79
2022/04/20 01:59:17;;;;;;;5.65;3.42;;;;;;;6.85;57.33;100273.69;5055731;28;20049;-78
2022/04/20 02:04:31;;;;;;;9.02;4.13;;;;;;;6.80;58.42;100287.00;5052998;28;20048;-79
2022/04/20 02:06:57;;;;;;;6.30;4.25;;;;;;;6.77;58.71;100286.25;5059868;28;20469;-79
2022/04/20 02:09:24;;;;;;;6.43;3.70;;;;;;;6.70;58.53;100288.22;5053407;28;20100;-79
2022/04/20 02:11:53;;;;;;;6.13;3.65;;;;;;;6.69;58.76;100297.03;5061014;28;20040;-79
2022/04/20 02:14:20;;;;;;;5.07;3.25;;;;;;;6.67;59.09;100297.06;5063097;28;20045;-80
2022/04/20 02:16:47;;;;;;;5.38;3.40;;;;;;;6.59;59.72;100282.44;5066261;28;20083;-79
2022/04/20 02:19:16;;;;;;;9.38;3.50;;;;;;;6.57;59.89;100293.03;5063439;28;20059;-79
2022/04/20 02:21:43;;;;;;;4.50;3.22;;;;;;;6.49;59.75;100287.13;5066486;28;20064;-79
2022/04/20 02:24:16;;;;;;;4.90;3.50;;;;;;;6.48;59.43;100293.31;5052865;28;20048;-78
2022/04/20 02:26:45;;;;;;;5.03;3.80;;;;;;;6.41;59.55;100290.94;5056158;28;20458;-79
2022/04/20 02:29:11;;;;;;;5.63;3.78;;;;;;;6.29;59.68;100273.78;5051430;28;20071;-78
2022/04/20 02:31:41;;;;;;;5.40;3.83;;;;;;;6.31;60.27;100282.44;5061518;28;20068;-79
2022/04/20 02:34:08;;;;;;;5.20;4.00;;;;;;;6.44;60.35;100294.34;5054957;28;20044;-77
2022/04/20 02:36:35;;;;;;;6.75;4.03;;;;;;;6.39;60.41;100296.25;5052700;28;20045;-79
2022/04/20 02:39:04;;;;;;;4.97;3.85;;;;;;;6.39;60.25;100300.63;5056935;28;20052;-79
2022/04/20 02:41:32;;;;;;;4.45;3.47;;;;;;;6.25;60.57;100287.91;5052989;28;20057;-78
2022/04/20 02:43:59;;;;;;;6.97;3.65;;;;;;;6.17;60.39;100284.66;5059210;28;20053;-79
2022/04/20 02:46:27;;;;;;;6.03;3.65;;;;;;;6.28;60.90;100311.50;5050841;28;20140;-80
2022/04/20 02:48:54;;;;;;;4.43;3.75;;;;;;;6.25;61.00;100301.06;5033338;28;20501;-78
2022/04/20 02:51:21;;;;;;;9.65;3.80;;;;;;;6.28;61.32;100300.97;5057960;28;20075;-78
2022/04/20 02:53:47;;;;;;;4.32;3.58;;;;;;;6.26;60.62;100308.06;5056138;28;20050;-78
2022/04/20 02:56:16;;;;;;;6.07;3.60;;;;;;;6.24;61.00;100308.09;5058046;28;20064;-78
2022/04/20 02:58:47;;;;;;;6.63;3.90;;;;;;;6.25;60.51;100328.22;5043439;28;20050;-78
2022/04/20 03:01:13;;;;;;;4.97;3.70;;;;;;;6.11;60.83;100312.00;5053934;28;20048;-78
2022/04/20 03:03:40;;;;;;;6.63;3.47;;;;;;;6.17;61.02;100321.47;5053585;28;20124;-78
2022/04/20 03:06:11;;;;;;;7.93;3.95;;;;;;;6.19;60.83;100317.88;5036242;28;20123;-78
2022/04/20 03:08:38;;;;;;;6.25;3.75;;;;;;;6.08;60.46;100309.47;5050902;28;20072;-78
2022/04/20 03:11:05;;;;;;;4.95;3.60;;;;;;;5.76;61.16;100260.44;5054461;28;20041;-79
2022/04/20 03:13:32;;;;;;;4.50;3.50;;;;;;;6.10;60.83;100322.56;5060016;28;20543;-78
2022/04/20 03:15:59;;;;;;;7.75;3.58;;;;;;;6.06;61.49;100323.56;5057549;28;20111;-78
2022/04/20 03:18:31;;;;;;;7.57;4.07;;;;;;;6.03;61.43;100323.63;5056876;28;20114;-80
2022/04/20 03:21:01;;;;;;;5.05;3.90;;;;;;;5.88;61.85;100302.16;5057121;28;20068;-79
2022/04/20 03:23:29;;;;;;;5.00;3.47;;;;;;;5.90;61.48;100321.38;5047308;28;20056;-79
2022/04/20 03:25:57;;;;;;;6.05;3.60;;;;;;;5.93;61.54;100339.69;5066469;28;20045;-79
2022/04/20 03:28:26;;;;;;;5.20;3.60;;;;;;;5.77;61.73;100298.97;5040879;28;20046;-80
2022/04/20 03:30:53;;;;;;;5.50;4.10;;;;;;;5.90;61.59;100331.03;5065240;28;20041;-80
2022/04/20 03:33:20;;;;;;;6.25;3.63;;;;;;;5.86;61.72;100318.84;5045887;28;20045;-80
2022/04/20 03:35:48;;;;;;;9.88;3.85;;;;;;;5.94;61.35;100333.53;5069857;28;20060;-78
2022/04/20 03:38:15;;;;;;;6.32;3.92;;;;;;;5.91;61.29;100333.63;5071901;28;20043;-79
2022/04/20 03:40:42;;;;;;;6.78;3.95;;;;;;;5.86;61.56;100334.59;5063035;28;20056;-78
2022/04/20 03:43:09;;;;;;;7.85;3.72;;;;;;;5.68;61.80;100307.09;5055350;28;20091;-78
2022/04/20 03:45:36;;;;;;;7.75;4.35;;;;;;;5.85;62.06;100335.50;5057864;28;20045;-79
2022/04/20 03:48:04;;;;;;;7.00;3.88;;;;;;;5.76;61.45;100322.66;5058151;28;20106;-79
2022/04/20 03:50:32;;;;;;;4.60;3.70;;;;;;;5.76;62.07;100341.91;5055945;28;20042;-79
2022/04/20 03:52:59;;;;;;;5.78;3.13;;;;;;;5.73;61.65;100335.88;5055354;28;20112;-78
2022/04/20 03:55:26;;;;;;;6.50;4.05;;;;;;;5.63;62.33;100324.75;5051973;28;20049;-78
2022/04/20 03:57:54;;;;;;;5.35;4.00;;;;;;;5.69;62.95;100336.84;5050773;28;20053;-79
2022/04/20 04:00:24;;;;;;;7.93;3.97;;;;;;;5.51;63.52;100312.81;5050005;28;20061;-78
2022/04/20 04:02:52;;;;;;;6.18;4.05;;;;;;;5.61;63.82;100331.81;5041040;28;20520;-78
2022/04/20 04:05:20;;;;;;;5.55;4.25;;;;;;;5.57;64.25;100335.44;5044285;28;20491;-79
2022/04/20 04:07:47;;;;;;;6.47;4.05;;;;;;;5.58;63.94;100332.75;5037242;28;20060;-78
2022/04/20 04:10:14;;;;;;;6.63;4.20;;;;;;;5.64;63.84;100335.22;5051545;28;20395;-78
2022/04/20 04:12:41;;;;;;;7.15;3.67;;;;;;;5.67;63.22;100343.94;5054000;28;20483;-79
2022/04/20 04:15:08;;;;;;;7.45;3.72;;;;;;;5.64;62.68;100340.50;5048906;28;20045;-78
2022/04/20 04:17:35;;;;;;;8.20;4.00;;;;;;;5.65;63.33;100341.34;5053632;28;20129;-78
2022/04/20 04:20:04;;;;;;;4.90;3.63;;;;;;;5.75;62.68;100349.81;5054331;28;20053;-79
2022/04/20 04:22:31;;;;;;;5.60;3.92;;;;;;;5.73;62.98;100341.13;5059512;28;20387;-79
2022/04/20 04:24:58;;;;;;;6.30;3.90;;;;;;;5.67;62.01;100336.06;5075730;28;20052;-78
2022/04/20 04:27:25;;;;;;;8.10;4.10;;;;;;;5.65;61.95;100346.59;5064905;28;20075;-78
2022/04/20 04:29:52;;;;;;;5.65;3.88;;;;;;;5.54;62.57;100335.50;5032179;28;20087;-78
2022/04/20 04:32:19;;;;;;;6.88;3.80;;;;;;;5.52;62.82;100332.06;5055023;28;20144;-78
2022/04/20 04:34:48;;;;;;;6.70;3.55;;;;;;;5.47;62.83;100326.09;5051873;28;20044;-79
2022/04/20 04:37:18;;;;;;;7.10;4.22;;;;;;;5.48;63.24;100336.56;5038151;28;20075;-78
2022/04/20 04:39:44;;;;;;;5.90;4.00;;;;;;;5.52;63.77;100347.81;5059332;28;20083;-78
2022/04/20 04:42:11;;;;;;;5.25;3.70;;;;;;;5.45;63.48;100336.63;5054000;28;20107;-81
2022/04/20 04:44:38;;;;;;;6.47;3.75;;;;;;;5.50;63.37;100345.25;5053261;28;20055;-78
2022/04/20 04:49:52;;;;;;;6.15;3.90;;;;;;;5.47;63.55;100333.97;5044023;28;20068;-79
2022/04/20 04:52:19;;;;;;;7.45;4.05;;;;;;;5.52;63.63;100334.69;5054020;28;20400;-79
2022/04/20 04:54:46;;;;;;;5.50;4.10;;;;;;;5.62;64.04;100347.53;5054667;28;20045;-79
2022/04/20 04:57:13;;;;;;;5.93;4.00;;;;;;;5.67;63.68;100347.41;5054135;28;20048;-79
2022/04/20 04:59:40;;;;;;;6.25;4.32;;;;;;;5.64;63.76;100337.00;5058826;28;20052;-80
2022/04/20 05:02:08;;;;;;;4.88;4.20;;;;;;;5.67;62.96;100352.66;5054087;28;20045;-78
2022/04/20 05:04:36;;;;;;;5.80;3.92;;;;;;;5.61;62.89;100329.19;5055747;28;20048;-78
2022/04/20 05:07:04;;;;;;;5.20;3.72;;;;;;;5.73;62.93;100351.63;5051961;28;20076;-79
2022/04/20 05:09:34;;;;;;;9.52;4.15;;;;;;;5.73;63.31;100343.75;5035092;28;20147;-78
2022/04/20 05:12:01;;;;;;;4.90;3.90;;;;;;;5.72;62.89;100345.50;5057858;28;20060;-80
2022/04/20 05:14:30;;;;;;;6.72;4.45;;;;;;;5.76;63.22;100351.56;5055023;28;20049;-79
2022/04/20 05:16:58;;;;;;;6.22;4.25;;;;;;;5.71;62.95;100337.66;5046997;28;20562;-79
2022/04/20 05:19:29;;;;;;;5.18;4.13;;;;;;;5.79;62.64;100344.44;5058199;28;20087;-79
2022/04/20 05:21:56;;;;;;;4.90;3.85;;;;;;;5.90;62.48;100345.03;5055118;28;20548;-79
2022/04/20 05:24:23;;;;;;;8.80;4.25;;;;;;;5.93;62.08;100352.84;5060844;28;20480;-79
2022/04/20 05:26:50;;;;;;;5.43;3.97;;;;;;;5.97;61.56;100354.47;5060565;28;20504;-79
2022/04/20 05:29:19;;;;;;;5.25;4.20;;;;;;;5.94;61.36;100343.19;5039413;28;20062;-78
2022/04/20 05:31:46;;;;;;;6.45;3.88;;;;;;;6.06;61.73;100355.09;5057635;28;20073;-78
2022/04/20 05:34:13;;;;;;;6.93;3.95;;;;;;;6.16;59.95;100365.28;5058433;28;20056;-78
2022/04/20 05:42:12;;;;;;;7.30;3.92;;;;;;;6.33;60.76;100354.28;5053916;28;20037;-79
2022/04/20 05:44:39;;;;;;;6.80;4.10;;;;;;;6.37;60.00;100347.16;5055141;28;20144;-78
2022/04/20 05:47:06;;;;;;;6.05;4.18;;;;;;;6.48;59.74;100368.72;5058026;28;20084;-79
2022/04/20 05:49:36;;;;;;;4.78;3.58;;;;;;;6.46;59.88;100352.97;5050254;28;20049;-78
2022/04/20 05:52:03;;;;;;;8.07;4.35;;;;;;;6.62;59.58;100363.91;5055754;28;20069;-80
2022/04/20 05:54:30;;;;;;;7.32;4.13;;;;;;;6.60;58.99;100348.19;5058104;28;20067;-79
2022/04/20 05:56:57;;;;;;;6.90;4.40;;;;;;;6.66;58.53;100347.09;5054465;28;20051;-79
2022/04/20 05:59:26;;;;;;;7.65;3.85;;;;;;;6.68;58.23;100337.41;5056915;28;20413;-80
2022/04/20 06:01:53;;;;;;;5.78;4.05;;;;;;;6.91;58.04;100366.50;5053577;28;20055;-79
2022/04/20 06:04:20;;;;;;;6.38;4.00;;;;;;;6.99;57.63;100355.69;5059104;28;20538;-79
2022/04/20 06:06:49;;;;;;;5.65;3.58;;;;;;;7.07;56.96;100356.31;5054933;28;20142;-78
2022/04/20 06:09:16;;;;;;;7.10;3.30;;;;;;;7.17;56.03;100349.81;5051962;28;22348;-78
2022/04/20 06:11:43;;;;;;;5.88;3.53;;;;;;;7.30;54.80;100342.34;5057319;28;20061;-78
2022/04/20 06:14:09;;;;;;;6.10;4.00;;;;;;;7.38;54.58;100348.22;5059132;28;20053;-78
2022/04/20 06:16:37;;;;;;;6.80;3.65;;;;;;;7.51;54.26;100348.66;5059158;28;20045;-79
2022/04/20 06:19:04;;;;;;;4.18;3.45;;;;;;;7.67;53.82;100360.38;5060926;28;20046;-79
2022/04/20 06:21:31;;;;;;;4.55;3.17;;;;;;;7.82;53.10;100365.09;5060295;28;20037;-79
2022/04/20 06:24:00;;;;;;;4.68;3.30;;;;;;;7.88;53.43;100349.03;5062003;28;20083;-81
2022/04/20 06:26:28;;;;;;;4.82;3.30;;;;;;;8.15;52.67;100365.66;5061030;28;20084;-79
2022/04/20 06:28:55;;;;;;;7.82;3.20;;;;;;;8.34;51.95;100347.38;5064448;28;20087;-78
2022/04/20 06:31:22;;;;;;;4.82;3.15;;;;;;;8.88;50.16;100359.28;5056305;28;20044;-79
2022/04/20 06:33:51;;;;;;;3.75;3.05;;;;;;;9.46;49.76;100365.66;5055664;28;20052;-78
2022/04/20 06:36:21;;;;;;;4.07;3.00;;;;;;;10.15;47.54;100363.47;5051618;28;20459;-78
2022/04/20 06:38:48;;;;;;;4.25;2.78;;;;;;;10.84;45.71;100366.41;5041384;28;20566;-79
2022/04/20 06:41:17;;;;;;;5.10;3.22;;;;;;;11.33;43.72;100362.22;5055653;28;20159;-78
2022/04/20 06:43:44;;;;;;;5.00;3.03;;;;;;;11.44;42.32;100321.88;5051821;28;20052;-79
2022/04/20 06:46:11;;;;;;;4.28;2.75;;;;;;;12.02;41.71;100356.84;5053737;28;20056;-79
2022/04/20 06:48:38;;;;;;;4.13;3.35;;;;;;;12.29;41.00;100346.50;5051262;28;20048;-78
2022/04/20 06:51:05;;;;;;;4.75;2.88;;;;;;;12.61;40.83;100344.72;5053295;28;20156;-79
2022/04/20 06:59:03;;;;;;;4.40;2.92;;;;;;;13.62;38.97;100353.91;5059051;28;20048;-79
2022/04/20 07:01:30;;;;;;;3.28;2.65;;;;;;;13.84;37.95;100350.81;5069579;28;20055;-79
2022/04/20 07:03:59;;;;;;;4.03;2.80;;;;;;;13.86;37.79;100350.69;5057648;28;20076;-79
2022/04/20 07:06:27;;;;;;;5.10;3.15;;;;;;;13.76;38.53;100337.09;5059836;28;20072;-80
2022/04/20 07:08:54;;;;;;;4.38;3.00;;;;;;;13.80;37.71;100349.28;5066010;28;20068;-79
2022/04/20 07:11:21;;;;;;;4.07;2.75;;;;;;;13.51;38.62;100343.06;5060291;28;20107;-79
2022/04/20 07:13:51;;;;;;;4.13;2.72;;;;;;;13.66;38.52;100351.91;5061142;28;20099;-79
2022/04/20 07:16:17;;;;;;;6.47;3.00;;;;;;;13.79;38.08;100354.69;5056464;28;20083;-80
2022/04/20 07:18:44;;;;;;;5.32;3.05;;;;;;;13.78;37.24;100329.88;5052721;28;20057;-78
2022/04/20 07:21:11;;;;;;;5.68;2.70;;;;;;;13.73;36.34;100328.44;5044408;28;20076;-79
2022/04/20 07:23:38;;;;;;;5.38;3.13;;;;;;;13.84;36.95;100344.63;5055494;28;20140;-78
2022/04/20 07:26:05;;;;;;;4.75;2.80;;;;;;;13.98;37.13;100349.97;5051824;28;20423;-78
2022/04/20 07:28:32;;;;;;;4.85;3.00;;;;;;;13.97;36.62;100343.78;5057728;28;20163;-78
2022/04/20 07:31:01;;;;;;;9.20;3.00;;;;;;;13.89;36.99;100339.84;5058884;28;20044;-80
2022/04/20 07:33:28;;;;;;;4.50;2.90;;;;;;;14.00;36.74;100345.41;5057736;28;20615;-82
2022/04/20 07:35:55;;;;;;;2.88;2.58;;;;;;;13.85;34.89;100335.69;5059870;28;20048;-83
2022/04/20 07:38:25;;;;;;;4.47;3.13;;;;;;;13.64;35.14;100332.53;5059272;28;20033;-84
2022/04/20 07:40:53;;;;;;;8.27;2.70;;;;;;;13.86;35.57;100353.34;5062090;28;20171;-83
2022/04/20 07:43:19;;;;;;;3.35;3.03;;;;;;;13.85;34.81;100311.75;5053948;28;20049;-84
2022/04/20 07:45:46;;;;;;;4.60;2.83;;;;;;;14.04;34.54;100355.75;5057744;28;20062;-84
2022/04/20 07:48:13;;;;;;;2.90;2.58;;;;;;;14.14;33.60;100356.06;5056510;28;20055;-81
2022/04/20 07:50:41;;;;;;;5.78;2.90;;;;;;;14.09;33.25;100349.28;5054925;28;20112;-83
2022/04/20 07:53:07;;;;;;;4.72;3.28;;;;;;;14.11;32.85;100363.38;5065076;28;20167;-80
2022/04/20 07:55:34;;;;;;;3.95;2.70;;;;;;;14.05;33.18;100332.63;5068913;28;20028;-80
2022/04/20 07:58:03;;;;;;;3.00;2.70;;;;;;;14.25;32.73;100366.03;5073742;28;20040;-80
2022/04/20 08:00:32;;;;;;;3.08;2.50;;;;;;;14.26;33.04;100368.59;5071921;28;20052;-81
2022/04/20 08:03:14;;;;;;;4.18;2.65;;;;;;;14.15;33.27;100370.22;5072295;28;20037;-81
2022/04/20 08:05:42;;;;;;;4.57;3.10;;;;;;;14.34;33.17;100355.63;5054481;28;20061;-82
2022/04/20 08:08:10;;;;;;;4.00;3.28;;;;;;;14.63;32.07;100363.63;5068491;28;20045;-80
2022/04/20 08:10:38;;;;;;;3.67;2.90;;;;;;;14.68;32.31;100369.50;5074946;28;21228;-80
2022/04/20 08:15:51;;;;;;;4.32;2.92;;;;;;;14.61;31.88;100361.06;5074448;28;20056;-81
2022/04/20 08:18:18;;;;;;;6.07;2.85;;;;;;;14.60;32.06;100356.69;5064697;28;20108;-82
2022/04/20 08:20:45;;;;;;;3.40;3.05;;;;;;;14.63;31.98;100352.97;5059301;28;20056;-82
2022/04/20 08:23:11;;;;;;;5.97;3.20;;;;;;;14.64;32.38;100358.19;5067804;28;20190;-81
2022/04/20 08:25:39;;;;;;;5.60;3.00;;;;;;;14.80;29.57;100354.53;5058355;28;20064;-81
2022/04/20 08:28:07;;;;;;;4.32;3.10;;;;;;;14.86;29.74;100363.00;5057688;28;20544;-81
2022/04/20 08:30:38;;;;;;;4.80;3.47;;;;;;;14.71;29.63;100356.84;5054144;28;20462;-80
2022/04/20 08:33:07;;;;;;;4.82;3.25;;;;;;;14.87;29.23;100347.84;5046463;28;20045;-80
2022/04/20 08:35:35;;;;;;;5.47;3.00;;;;;;;14.79;29.20;100340.38;5041489;28;20075;-80
2022/04/20 08:38:05;;;;;;;3.25;2.85;;;;;;;14.78;28.75;100333.31;5054750;28;20065;-80
2022/04/20 08:40:34;;;;;;;4.60;3.03;;;;;;;14.78;29.54;100352.00;5057022;28;20099;-79
2022/04/20 08:43:03;;;;;;;3.03;2.50;;;;;;;14.53;29.61;100312.72;5061175;28;20059;-80
2022/04/20 08:45:37;;;;;;;3.97;2.78;;;;;;;14.87;29.78;100356.72;5050653;28;20041;-78
2022/04/20 08:48:06;;;;;;;3.03;2.70;;;;;;;15.11;29.65;100348.06;5056028;28;20054;-79
2022/04/20 08:50:33;;;;;;;3.80;3.08;;;;;;;15.21;29.58;100346.47;5056967;28;20072;-79
2022/04/20 08:53:09;;;;;;;5.43;3.47;;;;;;;14.90;30.34;100335.19;5059004;28;20064;-79
2022/04/20 08:55:35;;;;;;;3.70;2.95;;;;;;;14.72;29.71;100329.25;5061146;28;20091;-78
2022/04/20 08:58:07;;;;;;;3.80;2.63;;;;;;;14.34;30.85;100329.00;5058046;28;20049;-80
2022/04/20 09:00:34;;;;;;;4.65;2.97;;;;;;;13.97;31.70;100340.25;5058111;28;20048;-81
2022/04/20 09:03:03;;;;;;;4.35;2.85;;;;;;;13.46;31.62;100318.53;5040645;28;20056;-79
2022/04/20 09:05:34;;;;;;;4.47;2.83;;;;;;;13.49;32.22;100355.59;5059654;28;20147;-78
2022/04/20 09:08:11;;;;;;;4.68;2.88;;;;;;;13.24;31.97;100342.88;5060769;28;20052;-78
2022/04/20 09:10:38;;;;;;;3.42;2.72;;;;;;;13.35;31.64;100336.94;5061928;28;20045;-77
2022/04/20 09:13:08;;;;;;;5.50;2.80;;;;;;;13.49;31.46;100338.78;5047196;28;20051;-76
2022/04/20 09:15:36;;;;;;;3.40;2.75;;;;;;;13.48;32.16;100329.94;5060676;28;20053;-78
2022/04/20 09:18:04;;;;;;;5.20;2.80;;;;;;;13.38;32.18;100333.25;5056069;28;20128;-76
2022/04/20 09:20:33;;;;;;;3.40;2.80;;;;;;;13.13;32.10;100326.66;5062807;28;20064;-77
2022/04/20 09:23:10;;;;;;;4.32;2.83;;;;;;;12.69;32.93;100293.84;5054938;28;20080;-76
2022/04/20 09:25:51;;;;;;;5.80;3.20;;;;;;;12.60;33.26;100303.16;5054052;28;20053;-76
2022/04/20 09:28:19;;;;;;;4.88;2.63;;;;;;;12.81;33.97;100331.19;5051425;28;20053;-77
2022/04/20 09:30:50;;;;;;;3.05;2.60;;;;;;;12.98;33.55;100316.94;5057368;28;20530;-77
2022/04/20 09:33:18;;;;;;;2.50;2.17;;;;;;;13.20;32.99;100325.41;5062670;28;20044;-78
2022/04/20 09:35:47;;;;;;;2.78;2.42;;;;;;;13.19;32.16;100304.22;5052547;28;20056;-76
2022/04/20 09:38:23;;;;;;;5.07;2.67;;;;;;;13.15;32.26;100311.50;5056907;28;20041;-76
2022/04/20 09:40:49;;;;;;;4.35;3.00;;;;;;;13.14;32.58;100303.59;5056907;28;20502;-77
2022/04/20 09:43:21;;;;;;;10.93;2.92;;;;;;;13.21;32.69;100313.81;5067093;28;20045;-78
2022/04/20 09:48:50;;;;;;;7.15;2.97;;;;;;;13.12;32.12;100277.09;5061553;28;20048;-79
2022/04/20 09:49:10;;;;;;;5.53;2.80;;;;;;;13.32;32.23;100307.84;5052850;28;20041;-79
2022/04/20 09:51:38;;;;;;;;;;;;;;;13.42;32.54;100306.34;5050958;28;20064;-78
2022/04/20 09:54:23;;;;;;;4.68;2.70;;;;;;;13.39;31.84;100295.03;5036877;28;19924;-77
2022/04/20 09:57:09;;;;;;;8.10;3.30;;;;;;;13.40;32.24;100281.66;5056059;28;20109;-77
2022/04/20 09:59:53;;;;;;;7.25;3.00;;;;;;;13.53;31.76;100295.09;5054300;28;20041;-79
2022/04/20 10:02:49;;;;;;;11.98;2.95;;;;;;;13.67;31.94;100284.44;5026788;28;20072;-79
2022/04/20 10:05:17;;;;;;;9.82;3.15;;;;;;;13.79;31.47;100258.88;5053122;28;20072;-77
2022/04/20 10:07:51;;;;;;;4.55;2.92;;;;;;;14.09;31.15;100285.38;5051640;28;20045;-78
2022/04/20 10:10:22;;;;;;;4.10;2.50;;;;;;;14.10;30.95;100271.97;5058217;28;20049;-80
2022/04/20 10:12:54;;;;;;;5.85;3.00;;;;;;;14.23;31.21;100262.25;5047767;28;20072;-77
2022/04/20 10:18:21;;;;;;;4.45;2.38;;;;;;;14.48;29.69;100274.84;5052133;28;20500;-79
2022/04/20 10:20:50;;;;;;;4.90;2.67;;;;;;;14.43;29.79;100268.13;5039560;28;20044;-77
2022/04/20 11:01:11;;;;;;;4.55;2.50;;;;;;;15.29;28.93;100202.75;5053289;28;20174;-76
2022/04/20 11:03:57;;;;;;;2.63;2.22;;;;;;;15.54;28.74;100197.41;5021448;28;20052;-77
2022/04/20 11:06:58;;;;;;;4.18;2.38;;;;;;;15.54;29.63;100188.56;5033843;28;20053;-78
2022/04/20 11:09:45;;;;;;;5.10;2.55;;;;;;;15.64;29.70;100197.63;5031677;28;20107;-78
2022/04/20 11:21:03;;;;;;;6.40;2.50;;;;;;;15.97;27.76;100181.03;5027530;28;20052;-78
2022/04/20 11:23:53;;;;;;;3.17;2.00;;;;;;;16.19;27.56;100185.66;5032731;28;20218;-78
2022/04/20 11:26:23;;;;;;;2.78;2.50;;;;;;;16.09;27.61;100169.44;5026559;28;20053;-82
2022/04/20 11:28:54;;;;;;;5.65;2.63;;;;;;;15.98;28.54;100167.56;5033151;28;20110;-79
2022/04/20 11:31:22;;;;;;;4.05;2.50;;;;;;;16.09;28.01;100153.41;5045830;28;20588;-78
2022/04/20 11:33:52;;;;;;;3.53;2.55;;;;;;;16.05;27.87;100157.28;5030383;28;20057;-79
2022/04/20 11:36:21;;;;;;;3.45;2.13;;;;;;;16.09;28.76;100148.91;5048631;28;20045;-78
2022/04/20 11:38:50;;;;;;;3.80;2.72;;;;;;;16.35;28.46;100163.03;5041296;28;20053;-78
2022/04/20 11:41:19;;;;;;;10.55;3.00;;;;;;;16.34;28.26;100134.63;5048559;28;20072;-81
2022/04/20 11:43:49;;;;;;;2.92;2.63;;;;;;;16.44;28.05;100150.78;5047181;28;20053;-80
2022/04/20 11:46:17;;;;;;;2.70;2.30;;;;;;;16.33;27.86;100153.44;5047093;28;20119;-80
2022/04/20 11:48:58;;;;;;;3.53;2.50;;;;;;;16.24;28.19;100136.25;5033047;28;20543;-80
2022/04/20 11:51:31;;;;;;;5.35;2.80;;;;;;;16.31;27.67;100132.16;5042230;28;20053;-79
2022/04/20 11:53:58;;;;;;;3.25;2.40;;;;;;;16.40;27.75;100146.66;5029237;28;20060;-79
2022/04/20 11:56:39;;;;;;;3.00;2.13;;;;;;;16.20;27.79;100144.63;5039114;28;20045;-80
2022/04/20 11:59:09;;;;;;;3.08;2.22;;;;;;;16.17;27.81;100144.84;5037787;28;20056;-79
2022/04/20 12:01:41;;;;;;;3.47;2.28;;;;;;;16.17;28.35;100137.69;5042410;28;20056;-78
2022/04/20 12:04:16;;;;;;;3.58;2.17;;;;;;;16.39;28.43;100140.44;5046636;28;20077;-78
2022/04/20 12:06:59;;;;;;;4.10;2.72;;;;;;;16.42;28.27;100137.53;5040342;28;20129;-78
2022/04/20 12:09:35;;;;;;;4.45;2.40;;;;;;;16.23;28.06;100081.09;5039522;28;20061;-78
2022/04/20 12:12:07;;;;;;;4.50;2.50;;;;;;;16.69;29.00;100118.59;5037446;28;20046;-79
2022/04/20 12:14:39;;;;;;;3.72;2.20;;;;;;;16.96;28.20;100125.47;5041044;28;20079;-78
2022/04/20 12:17:09;;;;;;;5.57;2.30;;;;;;;17.05;27.84;100117.56;5014990;28;20485;-78
2022/04/20 12:19:38;;;;;;;2.40;2.20;;;;;;;17.12;27.77;100113.47;5040680;28;20049;-78
2022/04/20 12:22:17;;;;;;;5.22;2.55;;;;;;;16.80;28.08;100053.59;5033682;28;20573;-79
2022/04/20 12:24:44;;;;;;;3.40;2.05;;;;;;;17.21;28.11;100111.00;5043315;28;20049;-79
2022/04/20 12:27:22;;;;;;;3.45;2.30;;;;;;;17.23;27.64;100099.22;5034725;28;20134;-78
2022/04/20 12:29:54;;;;;;;3.22;2.08;;;;;;;17.37;27.46;100107.00;5047325;28;20508;-78
2022/04/20 12:32:25;;;;;;;3.53;1.77;;;;;;;17.51;26.01;100108.56;5044444;28;20052;-80
2022/04/20 12:34:54;;;;;;;5.35;2.20;;;;;;;17.50;26.41;100101.50;5053160;28;20021;-81
2022/04/20 12:37:33;;;;;;;2.33;2.00;;;;;;;17.65;26.59;100088.75;5043799;28;20037;-80
2022/04/20 12:40:24;;;;;;;3.38;1.80;;;;;;;17.77;26.71;100088.63;5046462;28;20508;-79
2022/04/20 12:43:17;;;;;;;2.47;2.13;;;;;;;17.55;27.16;100085.94;5049118;28;20054;-80
2022/04/20 12:45:44;;;;;;;2.25;2.05;;;;;;;17.53;27.49;100079.84;5038391;28;20060;-79
2022/04/20 12:48:11;;;;;;;3.00;2.33;;;;;;;17.69;27.20;100080.34;5045225;28;20050;-79